sim
Sign-in with your pilot id or email,
or register
Callsign
Passwort

Schedule Details

Flight Number: OEF9071
Departure: Chicago O'Hare International Airport (KORD) at 05:20
Arrival: Munich Airport (EDDM) at 13:15

Weather Information
Getting current METAR information for KORD 222051Z 24008KT 10SM FEW170 26/12 A3010 RMK AO2 SLP189 T02610117 56021
Getting current METAR information for EDDM 222120Z VRB02KT CAVOK 14/14 Q1010 NOSIG

Schedule Frequency

Route Map